createdAt,value
2023-05-19T00:00:58.079Z,584.00
2023-05-19T00:01:58.105Z,579.00
2023-05-19T00:02:58.195Z,579.00
2023-05-19T00:03:58.097Z,585.00
2023-05-19T00:04:58.108Z,580.00
2023-05-19T00:05:58.189Z,582.00
2023-05-19T00:06:58.219Z,581.00
2023-05-19T00:07:58.247Z,584.00
2023-05-19T00:08:58.516Z,584.00
2023-05-19T00:09:58.558Z,584.00
2023-05-19T00:10:58.237Z,584.00
2023-05-19T00:11:58.268Z,589.00
2023-05-19T00:12:58.255Z,583.00
2023-05-19T00:13:58.291Z,575.00
2023-05-19T00:14:58.290Z,582.00
2023-05-19T00:15:58.359Z,582.00
2023-05-19T00:16:58.321Z,582.00
2023-05-19T00:17:58.471Z,582.00
2023-05-19T00:18:58.413Z,582.00
2023-05-19T00:19:58.356Z,582.00
2023-05-19T00:20:58.396Z,576.00
2023-05-19T00:21:58.405Z,581.00
2023-05-19T00:22:58.423Z,581.00
2023-05-19T00:23:58.524Z,581.00
2023-05-19T00:24:58.493Z,581.00
2023-05-19T00:25:58.513Z,578.00
2023-05-19T00:26:58.505Z,585.00
2023-05-19T00:27:58.504Z,583.00
2023-05-19T00:28:58.549Z,583.00
2023-05-19T00:29:58.591Z,578.00
2023-05-19T00:30:58.636Z,576.00
2023-05-19T00:31:58.714Z,582.00
2023-05-19T00:32:58.707Z,581.00
2023-05-19T00:33:58.700Z,578.00
2023-05-19T00:34:58.726Z,577.00
2023-05-19T00:35:58.820Z,578.00
2023-05-19T00:36:58.786Z,582.00
2023-05-19T00:37:58.784Z,580.00
2023-05-19T00:38:58.820Z,578.00
2023-05-19T00:39:58.833Z,578.00
2023-05-19T00:40:58.927Z,573.00
2023-05-19T00:41:58.916Z,578.00
2023-05-19T00:42:58.925Z,578.00
2023-05-19T00:43:58.966Z,577.00
2023-05-19T00:44:59.035Z,580.00
2023-05-19T00:45:58.984Z,578.00
2023-05-19T00:46:59.079Z,579.00
2023-05-19T00:47:59.236Z,579.00
2023-05-19T00:48:59.030Z,578.00
2023-05-19T00:49:59.078Z,575.00
2023-05-19T00:50:59.101Z,579.00
2023-05-19T00:51:59.122Z,575.00
2023-05-19T00:52:59.982Z,571.00
2023-05-19T00:53:59.230Z,576.00
2023-05-19T00:54:59.177Z,583.00
2023-05-19T00:55:59.236Z,581.00
2023-05-19T00:56:59.277Z,575.00
2023-05-19T00:57:59.277Z,577.00
2023-05-19T00:58:59.304Z,578.00
2023-05-19T00:59:59.302Z,577.00
2023-05-19T01:00:59.420Z,581.00
2023-05-19T01:01:59.356Z,583.00
2023-05-19T01:02:59.535Z,582.00
2023-05-19T01:03:59.624Z,578.00
2023-05-19T01:04:59.457Z,580.00
2023-05-19T01:05:59.495Z,577.00
2023-05-19T01:06:59.526Z,579.00
2023-05-19T01:07:59.548Z,580.00
2023-05-19T01:08:59.577Z,577.00
2023-05-19T01:09:59.624Z,577.00
2023-05-19T01:10:59.667Z,579.00
2023-05-19T01:11:59.637Z,580.00
2023-05-19T01:12:59.687Z,584.00
2023-05-19T01:13:59.696Z,574.00
2023-05-19T01:14:59.724Z,580.00
2023-05-19T01:15:59.769Z,578.00
2023-05-19T01:16:59.723Z,579.00
2023-05-19T01:17:59.909Z,579.00
2023-05-19T01:18:59.868Z,575.00
2023-05-19T01:19:59.824Z,580.00
2023-05-19T01:20:59.870Z,577.00
2023-05-19T01:21:59.911Z,581.00
2023-05-19T01:22:59.934Z,580.00
2023-05-19T01:23:59.952Z,579.00
2023-05-19T01:25:00.004Z,575.00
2023-05-19T01:26:00.046Z,582.00
2023-05-19T01:27:00.050Z,575.00
2023-05-19T01:28:00.075Z,583.00
2023-05-19T01:29:00.170Z,578.00
2023-05-19T01:30:00.145Z,576.00
2023-05-19T01:31:00.178Z,580.00
2023-05-19T01:32:00.311Z,575.00
2023-05-19T01:33:00.379Z,573.00
2023-05-19T01:34:00.292Z,574.00
2023-05-19T01:35:00.312Z,572.00
2023-05-19T01:36:00.318Z,574.00
2023-05-19T01:37:00.316Z,578.00
2023-05-19T01:38:00.376Z,572.00
2023-05-19T01:39:00.376Z,572.00
2023-05-19T01:40:00.404Z,577.00
2023-05-19T01:41:00.405Z,575.00
2023-05-19T01:42:00.490Z,576.00
2023-05-19T01:43:00.515Z,577.00
2023-05-19T01:44:00.504Z,574.00
2023-05-19T01:45:00.607Z,577.00
2023-05-19T01:46:00.637Z,577.00
2023-05-19T01:47:00.647Z,573.00
2023-05-19T01:48:00.665Z,574.00
2023-05-19T01:49:00.756Z,572.00
2023-05-19T01:50:00.717Z,574.00
2023-05-19T01:51:00.765Z,575.00
2023-05-19T01:52:00.840Z,576.00
2023-05-19T01:53:00.837Z,573.00
2023-05-19T01:54:00.874Z,575.00
2023-05-19T01:55:00.911Z,573.00
2023-05-19T01:56:00.971Z,570.00
2023-05-19T01:57:00.931Z,572.00
2023-05-19T01:58:00.980Z,571.00
2023-05-19T01:59:01.025Z,575.00
2023-05-19T02:00:01.060Z,574.00
2023-05-19T02:01:01.156Z,574.00
2023-05-19T02:02:01.130Z,573.00
2023-05-19T02:03:01.182Z,576.00
2023-05-19T02:04:01.304Z,574.00
2023-05-19T02:05:01.223Z,574.00
2023-05-19T02:06:01.248Z,576.00
2023-05-19T02:07:01.324Z,576.00
2023-05-19T02:08:01.319Z,574.00
2023-05-19T02:09:01.356Z,572.00
2023-05-19T02:10:01.371Z,571.00
2023-05-19T02:11:01.399Z,569.00
2023-05-19T02:12:01.431Z,573.00
2023-05-19T02:13:01.503Z,571.00
2023-05-19T02:14:01.503Z,575.00
2023-05-19T02:15:01.536Z,573.00
2023-05-19T02:16:01.640Z,575.00
2023-05-19T02:17:01.561Z,576.00
2023-05-19T02:18:01.659Z,575.00
2023-05-19T02:19:01.735Z,575.00
2023-05-19T02:20:01.698Z,575.00
2023-05-19T02:21:01.750Z,578.00
2023-05-19T02:22:01.791Z,574.00
2023-05-19T02:23:01.818Z,572.00
2023-05-19T02:24:01.871Z,571.00
2023-05-19T02:25:01.907Z,574.00
2023-05-19T02:26:01.915Z,572.00
2023-05-19T02:27:01.939Z,572.00
2023-05-19T02:28:02.048Z,577.00
2023-05-19T02:29:02.019Z,576.00
2023-05-19T02:30:02.126Z,574.00
2023-05-19T02:31:02.095Z,573.00
2023-05-19T02:32:02.306Z,575.00
2023-05-19T02:33:02.214Z,572.00
2023-05-19T02:34:02.252Z,573.00
2023-05-19T02:35:02.254Z,574.00
2023-05-19T02:36:02.311Z,574.00
2023-05-19T02:37:02.306Z,573.00
2023-05-19T02:38:02.326Z,574.00
2023-05-19T02:39:02.378Z,576.00
2023-05-19T02:40:02.426Z,573.00
2023-05-19T02:41:02.554Z,571.00
2023-05-19T02:42:02.534Z,575.00
2023-05-19T02:43:02.550Z,576.00
2023-05-19T02:44:02.569Z,575.00
2023-05-19T02:45:02.580Z,572.00
2023-05-19T02:46:02.691Z,571.00
2023-05-19T02:47:02.676Z,573.00
2023-05-19T02:48:02.759Z,575.00
2023-05-19T02:49:02.793Z,574.00
2023-05-19T02:50:02.788Z,573.00
2023-05-19T02:51:02.810Z,573.00
2023-05-19T02:52:02.899Z,574.00
2023-05-19T02:53:02.878Z,576.00
2023-05-19T02:54:02.931Z,572.00
2023-05-19T02:55:03.000Z,573.00
2023-05-19T02:56:02.991Z,571.00
2023-05-19T02:57:03.038Z,573.00
2023-05-19T02:58:03.077Z,571.00
2023-05-19T02:59:03.084Z,572.00
2023-05-19T03:00:03.198Z,570.00
2023-05-19T03:01:03.174Z,574.00
2023-05-19T03:02:03.267Z,571.00
2023-05-19T03:03:03.365Z,572.00
2023-05-19T03:04:03.505Z,572.00
2023-05-19T03:05:03.326Z,572.00
2023-05-19T03:06:03.386Z,570.00
2023-05-19T03:07:03.421Z,573.00
2023-05-19T03:08:03.446Z,573.00
2023-05-19T03:09:03.486Z,573.00
2023-05-19T03:10:03.545Z,573.00
2023-05-19T03:11:03.556Z,570.00
2023-05-19T03:12:03.572Z,568.00
2023-05-19T03:13:03.683Z,570.00
2023-05-19T03:14:03.750Z,570.00
2023-05-19T03:15:03.810Z,570.00
2023-05-19T03:16:03.813Z,572.00
2023-05-19T03:17:03.758Z,572.00
2023-05-19T03:18:03.852Z,571.00
2023-05-19T03:19:03.912Z,570.00
2023-05-19T03:20:03.840Z,571.00
2023-05-19T03:21:03.925Z,571.00
2023-05-19T03:22:03.989Z,573.00
2023-05-19T03:23:03.992Z,570.00
2023-05-19T03:24:04.059Z,572.00
2023-05-19T03:25:04.060Z,571.00
2023-05-19T03:26:04.085Z,572.00
2023-05-19T03:27:04.128Z,571.00
2023-05-19T03:28:04.184Z,572.00
2023-05-19T03:29:04.208Z,569.00
2023-05-19T03:30:06.515Z,572.00
2023-05-19T03:31:04.356Z,572.00
2023-05-19T03:32:04.407Z,572.00
2023-05-19T03:33:04.592Z,570.00
2023-05-19T03:34:04.454Z,572.00
2023-05-19T03:35:04.526Z,571.00
2023-05-19T03:36:04.643Z,570.00
2023-05-19T03:37:04.557Z,572.00
2023-05-19T03:38:04.613Z,568.00
2023-05-19T03:39:04.617Z,571.00
2023-05-19T03:40:04.672Z,571.00
2023-05-19T03:41:04.727Z,572.00
2023-05-19T03:42:04.732Z,570.00
2023-05-19T03:43:04.808Z,572.00
2023-05-19T03:44:04.798Z,568.00
2023-05-19T03:45:04.873Z,571.00
2023-05-19T03:46:04.993Z,568.00
2023-05-19T03:47:04.935Z,570.00
2023-05-19T03:48:04.993Z,567.00
2023-05-19T03:49:05.015Z,571.00
2023-05-19T03:50:05.059Z,568.00
2023-05-19T03:51:05.063Z,570.00
2023-05-19T03:52:05.113Z,571.00
2023-05-19T03:53:05.155Z,571.00
2023-05-19T03:54:05.188Z,571.00
2023-05-19T03:55:05.191Z,570.00
2023-05-19T03:56:05.215Z,570.00
2023-05-19T03:57:05.276Z,573.00
2023-05-19T03:58:05.332Z,572.00
2023-05-19T03:59:05.354Z,570.00
2023-05-19T04:00:05.373Z,568.00
2023-05-19T04:01:05.449Z,569.00
2023-05-19T04:02:05.614Z,568.00
2023-05-19T04:03:05.586Z,569.00
2023-05-19T04:04:05.560Z,567.00
2023-05-19T04:05:05.640Z,574.00
2023-05-19T04:06:06.543Z,571.00
2023-05-19T04:07:05.690Z,571.00
2023-05-19T04:08:05.713Z,572.00
2023-05-19T04:09:05.756Z,572.00
2023-05-19T04:10:05.801Z,571.00
2023-05-19T04:11:05.813Z,571.00
2023-05-19T04:12:06.039Z,567.00
2023-05-19T04:13:05.875Z,571.00
2023-05-19T04:14:05.957Z,570.00
2023-05-19T04:15:06.000Z,563.00
2023-05-19T04:16:06.075Z,567.00
2023-05-19T04:17:06.081Z,568.00
2023-05-19T04:18:06.114Z,567.00
2023-05-19T04:19:06.250Z,565.00
2023-05-19T04:20:06.154Z,567.00
2023-05-19T04:21:06.214Z,563.00
2023-05-19T04:22:06.258Z,563.00
2023-05-19T04:23:06.324Z,562.00
2023-05-19T04:24:06.379Z,563.00
2023-05-19T04:25:06.412Z,564.00
2023-05-19T04:26:06.391Z,562.00
2023-05-19T04:27:06.498Z,564.00
2023-05-19T04:28:06.519Z,556.00
2023-05-19T04:29:06.547Z,558.00
2023-05-19T04:30:06.624Z,556.00
2023-05-19T04:31:06.757Z,555.00
2023-05-19T04:32:06.737Z,554.00
2023-05-19T04:33:06.769Z,553.00
2023-05-19T04:34:06.724Z,552.00
2023-05-19T04:35:06.826Z,550.00
2023-05-19T04:36:06.827Z,549.00
2023-05-19T04:37:06.849Z,546.00
2023-05-19T04:38:06.937Z,546.00
2023-05-19T04:39:06.969Z,549.00
2023-05-19T04:40:07.006Z,547.00
2023-05-19T04:41:07.065Z,548.00
2023-05-19T04:42:07.095Z,546.00
2023-05-19T04:43:07.138Z,547.00
2023-05-19T04:44:07.166Z,548.00
2023-05-19T04:45:07.223Z,546.00
2023-05-19T04:46:07.301Z,549.00
2023-05-19T04:47:07.337Z,550.00
2023-05-19T04:48:07.315Z,545.00
2023-05-19T04:49:07.346Z,544.00
2023-05-19T04:50:07.352Z,548.00
2023-05-19T04:51:07.475Z,544.00
2023-05-19T04:52:07.515Z,547.00
2023-05-19T04:53:07.484Z,550.00
2023-05-19T04:54:07.536Z,545.00
2023-05-19T04:55:07.550Z,546.00
2023-05-19T04:56:07.593Z,548.00
2023-05-19T04:57:07.641Z,544.00
2023-05-19T04:58:07.661Z,547.00
2023-05-19T04:59:07.687Z,545.00
2023-05-19T05:00:07.730Z,547.00
2023-05-19T05:01:07.793Z,546.00
2023-05-19T05:02:07.860Z,548.00
2023-05-19T05:03:08.042Z,545.00
2023-05-19T05:04:07.956Z,542.00
2023-05-19T05:05:08.011Z,544.00
2023-05-19T05:06:07.940Z,545.00
2023-05-19T05:07:07.973Z,544.00
2023-05-19T05:08:07.998Z,544.00
2023-05-19T05:09:08.042Z,543.00
2023-05-19T05:10:08.043Z,545.00
2023-05-19T05:11:08.078Z,547.00
2023-05-19T05:12:08.151Z,546.00
2023-05-19T05:13:09.053Z,545.00
2023-05-19T05:14:08.148Z,548.00
2023-05-19T05:15:08.181Z,546.00
2023-05-19T05:16:08.257Z,547.00
2023-05-19T05:17:08.347Z,548.00
2023-05-19T05:18:08.379Z,547.00
2023-05-19T05:19:08.347Z,542.00
2023-05-19T05:20:08.326Z,548.00
2023-05-19T05:21:08.358Z,544.00
2023-05-19T05:22:08.348Z,546.00
2023-05-19T05:23:08.385Z,547.00
2023-05-19T05:24:08.463Z,545.00
2023-05-19T05:25:08.454Z,547.00
2023-05-19T05:26:08.476Z,541.00
2023-05-19T05:27:08.523Z,545.00
2023-05-19T05:28:08.601Z,543.00
2023-05-19T05:29:08.587Z,545.00
2023-05-19T05:30:08.646Z,542.00
2023-05-19T05:31:08.670Z,544.00
2023-05-19T05:32:08.797Z,543.00
2023-05-19T05:33:08.926Z,536.00
2023-05-19T05:34:08.740Z,541.00
2023-05-19T05:35:08.754Z,545.00
2023-05-19T05:36:08.816Z,543.00
2023-05-19T05:37:08.866Z,546.00
2023-05-19T05:38:08.875Z,545.00
2023-05-19T05:39:08.914Z,545.00
2023-05-19T05:40:08.894Z,547.00
2023-05-19T05:41:08.999Z,546.00
2023-05-19T05:42:08.998Z,542.00
2023-05-19T05:43:09.048Z,546.00
2023-05-19T05:44:09.052Z,545.00
2023-05-19T05:45:09.029Z,547.00
2023-05-19T05:46:09.160Z,548.00
2023-05-19T05:47:09.115Z,548.00
2023-05-19T05:48:09.233Z,545.00
2023-05-19T05:49:09.174Z,546.00
2023-05-19T05:50:09.371Z,545.00
2023-05-19T05:51:09.249Z,546.00
2023-05-19T05:52:09.282Z,546.00
2023-05-19T05:53:09.315Z,548.00
2023-05-19T05:54:09.318Z,549.00
2023-05-19T05:55:09.479Z,545.00
2023-05-19T05:56:09.395Z,545.00
2023-05-19T05:57:09.471Z,546.00
2023-05-19T05:58:09.454Z,545.00
2023-05-19T05:59:09.461Z,543.00
2023-05-19T06:00:09.490Z,538.00
2023-05-19T06:01:09.506Z,545.00
2023-05-19T06:02:09.579Z,541.00
2023-05-19T06:03:09.854Z,543.00
2023-05-19T06:04:09.598Z,543.00
2023-05-19T06:05:09.616Z,539.00
2023-05-19T06:06:09.668Z,535.00
2023-05-19T06:07:09.780Z,543.00
2023-05-19T06:08:09.730Z,543.00
2023-05-19T06:09:09.724Z,545.00
2023-05-19T06:10:09.735Z,548.00
2023-05-19T06:11:09.836Z,540.00
2023-05-19T06:12:09.779Z,546.00
2023-05-19T06:13:09.850Z,547.00
2023-05-19T06:14:09.864Z,537.00
2023-05-19T06:15:09.872Z,544.00
2023-05-19T06:16:10.002Z,539.00
2023-05-19T06:17:09.955Z,538.00
2023-05-19T06:18:10.005Z,544.00
2023-05-19T06:19:10.010Z,539.00
2023-05-19T06:20:10.032Z,544.00
2023-05-19T06:21:10.010Z,540.00
2023-05-19T06:22:10.020Z,534.00
2023-05-19T06:23:10.064Z,542.00
2023-05-19T06:24:10.072Z,542.00
2023-05-19T06:25:10.118Z,533.00
2023-05-19T06:26:10.090Z,541.00
2023-05-19T06:27:10.117Z,538.00
2023-05-19T06:28:10.150Z,539.00
2023-05-19T06:29:10.184Z,534.00
2023-05-19T06:30:10.163Z,538.00
2023-05-19T06:31:10.278Z,543.00
2023-05-19T06:32:10.200Z,542.00
2023-05-19T06:33:10.253Z,542.00
2023-05-19T06:34:10.209Z,540.00
2023-05-19T06:35:10.284Z,539.00
2023-05-19T06:36:10.320Z,543.00
2023-05-19T06:37:10.293Z,541.00
2023-05-19T06:38:10.292Z,542.00
2023-05-19T06:39:10.338Z,545.00
2023-05-19T06:40:10.286Z,542.00
2023-05-19T06:41:10.345Z,546.00
2023-05-19T06:42:10.384Z,539.00
2023-05-19T06:43:10.324Z,544.00
2023-05-19T06:44:10.360Z,546.00
2023-05-19T06:45:10.391Z,540.00
2023-05-19T06:46:10.386Z,542.00
2023-05-19T06:47:10.424Z,542.00
2023-05-19T06:48:10.495Z,542.00
2023-05-19T06:49:10.423Z,544.00
2023-05-19T06:50:10.398Z,544.00
2023-05-19T06:51:11.002Z,542.00
2023-05-19T06:52:10.428Z,543.00
2023-05-19T06:53:10.474Z,536.00
2023-05-19T06:54:10.451Z,540.00
2023-05-19T06:55:10.452Z,535.00
2023-05-19T06:56:10.442Z,535.00
2023-05-19T06:57:10.449Z,539.00
2023-05-19T06:58:10.437Z,537.00
2023-05-19T06:59:10.435Z,536.00
2023-05-19T07:00:10.454Z,541.00
2023-05-19T07:01:10.454Z,536.00
2023-05-19T07:02:10.515Z,544.00
2023-05-19T07:03:10.543Z,540.00
2023-05-19T07:04:10.540Z,541.00
2023-05-19T07:05:10.465Z,543.00
2023-05-19T07:06:10.490Z,549.00
2023-05-19T07:07:10.479Z,548.00
2023-05-19T07:08:10.444Z,544.00
2023-05-19T07:09:10.499Z,539.00
2023-05-19T07:10:10.466Z,545.00
2023-05-19T07:11:10.526Z,545.00
2023-05-19T07:12:10.466Z,542.00
2023-05-19T07:13:10.490Z,547.00
2023-05-19T07:14:10.439Z,539.00
2023-05-19T07:15:10.454Z,542.00
2023-05-19T07:16:10.468Z,542.00
2023-05-19T07:17:10.442Z,541.00
2023-05-19T07:18:10.528Z,540.00
2023-05-19T07:19:10.522Z,537.00
2023-05-19T07:20:10.490Z,540.00
2023-05-19T07:21:10.425Z,542.00
2023-05-19T07:22:10.491Z,539.00
2023-05-19T07:23:10.461Z,542.00
2023-05-19T07:24:10.438Z,533.00
2023-05-19T07:25:10.456Z,537.00
2023-05-19T07:26:10.420Z,542.00
2023-05-19T07:27:10.543Z,543.00
2023-05-19T07:28:10.434Z,539.00
2023-05-19T07:29:10.466Z,533.00
2023-05-19T07:30:10.427Z,539.00
2023-05-19T07:31:10.434Z,540.00
2023-05-19T07:32:10.521Z,539.00
2023-05-19T07:33:10.532Z,535.00
2023-05-19T07:34:10.448Z,537.00
2023-05-19T07:35:10.478Z,536.00
2023-05-19T07:36:10.495Z,538.00
2023-05-19T07:37:10.534Z,533.00
2023-05-19T07:38:10.434Z,540.00
2023-05-19T07:39:10.507Z,533.00
2023-05-19T07:40:10.493Z,541.00
2023-05-19T07:41:10.457Z,537.00
2023-05-19T07:42:10.460Z,538.00
2023-05-19T07:43:10.470Z,535.00
2023-05-19T07:44:10.486Z,532.00
2023-05-19T07:45:10.414Z,535.00
2023-05-19T07:46:10.504Z,530.00
2023-05-19T07:47:10.438Z,534.00
2023-05-19T07:48:10.564Z,532.00
2023-05-19T07:49:10.478Z,529.00
2023-05-19T07:50:10.436Z,524.00
2023-05-19T07:51:10.480Z,529.00
2023-05-19T07:52:10.453Z,528.00
2023-05-19T07:53:10.434Z,520.00
2023-05-19T07:54:10.431Z,532.00
2023-05-19T07:55:10.449Z,524.00
2023-05-19T07:56:10.511Z,529.00
2023-05-19T07:57:10.464Z,531.00
2023-05-19T07:58:10.489Z,527.00
2023-05-19T07:59:10.491Z,529.00
2023-05-19T08:00:10.499Z,527.00
2023-05-19T08:01:10.486Z,524.00
2023-05-19T08:02:10.543Z,524.00
2023-05-19T08:03:10.709Z,521.00
2023-05-19T08:04:12.983Z,524.00
2023-05-19T08:05:10.565Z,519.00
2023-05-19T08:06:10.534Z,521.00
2023-05-19T08:07:10.536Z,524.00
2023-05-19T08:08:10.646Z,522.00
2023-05-19T08:09:10.511Z,520.00
2023-05-19T08:10:10.522Z,521.00
2023-05-19T08:11:10.490Z,518.00
2023-05-19T08:12:10.498Z,521.00
2023-05-19T08:13:10.485Z,515.00
2023-05-19T08:14:10.478Z,518.00
2023-05-19T08:15:10.492Z,516.00
2023-05-19T08:16:10.495Z,518.00
2023-05-19T08:17:10.438Z,512.00
2023-05-19T08:18:10.501Z,511.00
2023-05-19T08:19:10.472Z,510.00
2023-05-19T08:20:10.416Z,513.00
2023-05-19T08:21:10.433Z,516.00
2023-05-19T08:22:10.388Z,511.00
2023-05-19T08:23:10.444Z,517.00
2023-05-19T08:24:10.459Z,513.00
2023-05-19T08:25:10.453Z,519.00
2023-05-19T08:26:10.481Z,509.00
2023-05-19T08:27:10.400Z,512.00
2023-05-19T08:28:10.375Z,507.00
2023-05-19T08:29:10.413Z,508.00
2023-05-19T08:30:10.336Z,507.00
2023-05-19T08:31:10.368Z,510.00
2023-05-19T08:32:12.448Z,503.00
2023-05-19T08:33:10.395Z,503.00
2023-05-19T08:34:10.372Z,503.00
2023-05-19T08:35:10.305Z,506.00
2023-05-19T08:36:10.317Z,507.00
2023-05-19T08:37:10.335Z,512.00
2023-05-19T08:38:10.309Z,512.00
2023-05-19T08:39:10.330Z,511.00
2023-05-19T08:40:10.286Z,511.00
2023-05-19T08:41:10.332Z,514.00
2023-05-19T08:42:10.262Z,507.00
2023-05-19T08:43:10.261Z,503.00
2023-05-19T08:44:10.290Z,502.00
2023-05-19T08:45:10.246Z,508.00
2023-05-19T08:46:10.324Z,507.00
2023-05-19T08:47:10.386Z,502.00
2023-05-19T08:48:10.305Z,504.00
2023-05-19T08:49:10.274Z,508.00
2023-05-19T08:50:10.254Z,503.00
2023-05-19T08:51:10.218Z,505.00
2023-05-19T08:52:10.199Z,500.00
2023-05-19T08:53:21.114Z,505.00
2023-05-19T08:54:11.223Z,505.00
2023-05-19T08:55:10.207Z,507.00
2023-05-19T08:56:10.231Z,507.00
2023-05-19T08:57:10.174Z,506.00
2023-05-19T08:58:10.180Z,509.00
2023-05-19T08:59:10.167Z,505.00
2023-05-19T09:00:10.141Z,502.00
2023-05-19T09:01:10.207Z,504.00
2023-05-19T09:02:10.128Z,510.00
2023-05-19T09:03:23.150Z,510.00
2023-05-19T09:04:11.194Z,509.00
2023-05-19T09:05:10.176Z,510.00
2023-05-19T09:06:10.161Z,507.00
2023-05-19T09:07:10.090Z,508.00
2023-05-19T09:08:10.091Z,507.00
2023-05-19T09:09:10.074Z,508.00
2023-05-19T09:10:10.104Z,500.00
2023-05-19T09:11:10.120Z,508.00
2023-05-19T09:12:10.069Z,500.00
2023-05-19T09:13:10.142Z,504.00
2023-05-19T09:14:10.171Z,507.00
2023-05-19T09:15:10.207Z,509.00
2023-05-19T09:16:10.347Z,505.00
2023-05-19T09:17:10.389Z,507.00
2023-05-19T09:18:10.622Z,503.00
2023-05-19T09:19:10.454Z,505.00
2023-05-19T09:20:10.487Z,503.00
2023-05-19T09:21:10.488Z,500.00
2023-05-19T09:22:10.572Z,506.00
2023-05-19T09:23:10.651Z,503.00
2023-05-19T09:24:10.855Z,506.00
2023-05-19T09:25:10.767Z,512.00
2023-05-19T09:26:10.810Z,512.00
2023-05-19T09:27:10.885Z,515.00
2023-05-19T09:28:10.946Z,513.00
2023-05-19T09:29:10.954Z,511.00
2023-05-19T09:30:11.057Z,507.00
2023-05-19T09:31:11.193Z,506.00
2023-05-19T09:32:11.123Z,510.00
2023-05-19T09:33:11.203Z,512.00
2023-05-19T09:34:11.233Z,510.00
2023-05-19T09:35:11.294Z,501.00
2023-05-19T09:36:11.352Z,504.00
2023-05-19T09:37:11.413Z,509.00
2023-05-19T09:38:11.472Z,510.00
2023-05-19T09:39:11.572Z,505.00
2023-05-19T09:40:13.072Z,504.00
2023-05-19T09:41:11.718Z,503.00
2023-05-19T09:42:11.693Z,506.00
2023-05-19T09:43:11.788Z,507.00
2023-05-19T09:44:11.842Z,514.00
2023-05-19T09:45:11.929Z,505.00
2023-05-19T09:46:12.892Z,506.00
2023-05-19T09:47:12.109Z,509.00
2023-05-19T09:48:12.190Z,510.00
2023-05-19T09:49:12.226Z,503.00
2023-05-19T09:50:12.286Z,512.00
2023-05-19T09:51:12.411Z,505.00
2023-05-19T09:52:12.767Z,502.00
2023-05-19T09:53:12.486Z,500.00
2023-05-19T09:54:12.492Z,504.00
2023-05-19T09:55:12.574Z,501.00
2023-05-19T09:56:12.611Z,505.00
2023-05-19T09:57:12.705Z,500.00
2023-05-19T09:58:12.855Z,506.00
2023-05-19T09:59:12.971Z,501.00
2023-05-19T10:00:12.897Z,499.00
2023-05-19T10:01:12.957Z,511.00
2023-05-19T10:02:12.961Z,500.00
2023-05-19T10:03:13.117Z,505.00
2023-05-19T10:04:13.073Z,507.00
2023-05-19T10:05:13.204Z,500.00
2023-05-19T10:06:13.254Z,504.00
2023-05-19T10:07:13.379Z,502.00
2023-05-19T10:08:13.319Z,507.00
2023-05-19T10:09:13.380Z,510.00
2023-05-19T10:10:13.423Z,510.00
2023-05-19T10:11:13.491Z,507.00
2023-05-19T10:12:13.537Z,513.00
2023-05-19T10:13:13.588Z,508.00
2023-05-19T10:14:13.791Z,514.00
2023-05-19T10:15:13.691Z,504.00
2023-05-19T10:16:13.764Z,507.00
2023-05-19T10:17:13.815Z,508.00
2023-05-19T10:18:13.900Z,504.00
2023-05-19T10:19:13.974Z,505.00
2023-05-19T10:20:13.971Z,507.00
2023-05-19T10:21:14.025Z,506.00
2023-05-19T10:22:14.094Z,510.00
2023-05-19T10:23:14.175Z,501.00
2023-05-19T10:24:14.175Z,509.00
2023-05-19T10:25:14.248Z,505.00
2023-05-19T10:26:14.312Z,508.00
2023-05-19T10:27:14.500Z,515.00
2023-05-19T10:28:14.370Z,508.00
2023-05-19T10:29:14.428Z,508.00
2023-05-19T10:30:16.362Z,506.00
2023-05-19T10:31:14.520Z,506.00
2023-05-19T10:32:14.635Z,507.00
2023-05-19T10:33:14.692Z,503.00
2023-05-19T10:34:14.725Z,504.00
2023-05-19T10:35:14.755Z,510.00
2023-05-19T10:36:14.773Z,509.00
2023-05-19T10:37:14.795Z,511.00
2023-05-19T10:38:14.845Z,506.00
2023-05-19T10:39:14.899Z,507.00
2023-05-19T10:40:14.984Z,507.00
2023-05-19T10:41:14.973Z,506.00
2023-05-19T10:42:15.016Z,507.00
2023-05-19T10:43:15.052Z,503.00
2023-05-19T10:44:15.118Z,503.00
2023-05-19T10:45:15.193Z,505.00
2023-05-19T10:46:15.210Z,509.00
2023-05-19T10:47:15.238Z,501.00
2023-05-19T10:48:15.346Z,507.00
2023-05-19T10:49:15.328Z,507.00
2023-05-19T10:50:15.374Z,503.00
2023-05-19T10:51:15.427Z,506.00
2023-05-19T10:52:15.435Z,505.00
2023-05-19T10:53:15.501Z,505.00
2023-05-19T10:54:15.528Z,506.00
2023-05-19T10:55:15.564Z,505.00
2023-05-19T10:56:15.578Z,507.00
2023-05-19T10:57:15.764Z,508.00
2023-05-19T10:58:15.692Z,513.00
2023-05-19T10:59:15.709Z,512.00
2023-05-19T11:00:15.780Z,506.00
2023-05-19T11:01:15.878Z,509.00
2023-05-19T11:02:15.911Z,513.00
2023-05-19T11:03:15.939Z,509.00
2023-05-19T11:04:15.997Z,509.00
2023-05-19T11:05:15.906Z,515.00
2023-05-19T11:06:15.925Z,512.00
2023-05-19T11:07:15.971Z,516.00
2023-05-19T11:08:16.063Z,512.00
2023-05-19T11:09:16.052Z,514.00
2023-05-19T11:10:16.074Z,515.00
2023-05-19T11:11:16.142Z,513.00
2023-05-19T11:12:16.132Z,515.00
2023-05-19T11:13:16.156Z,515.00
2023-05-19T11:14:16.208Z,515.00
2023-05-19T11:15:16.226Z,516.00
2023-05-19T11:16:16.265Z,515.00
2023-05-19T11:17:16.302Z,514.00
2023-05-19T11:18:16.350Z,520.00
2023-05-19T11:19:16.318Z,518.00
2023-05-19T11:20:16.365Z,513.00
2023-05-19T11:21:16.387Z,520.00
2023-05-19T11:22:16.394Z,516.00
2023-05-19T11:23:16.424Z,522.00
2023-05-19T11:24:16.540Z,520.00
2023-05-19T11:25:16.488Z,516.00
2023-05-19T11:26:16.460Z,517.00
2023-05-19T11:27:16.526Z,521.00
2023-05-19T11:28:16.563Z,519.00
2023-05-19T11:29:16.563Z,517.00
2023-05-19T11:30:16.624Z,519.00
2023-05-19T11:31:16.765Z,520.00
2023-05-19T11:32:16.693Z,516.00
2023-05-19T11:33:16.687Z,518.00
2023-05-19T11:34:16.667Z,521.00
2023-05-19T11:35:16.701Z,518.00
2023-05-19T11:36:16.718Z,517.00
2023-05-19T11:37:17.758Z,520.00
2023-05-19T11:38:16.787Z,523.00
2023-05-19T11:39:16.818Z,515.00
2023-05-19T11:40:16.807Z,522.00
2023-05-19T11:41:18.740Z,522.00
2023-05-19T11:42:17.021Z,524.00
2023-05-19T11:43:17.002Z,524.00
2023-05-19T11:44:17.012Z,527.00
2023-05-19T11:45:17.048Z,526.00
2023-05-19T11:46:17.104Z,522.00
2023-05-19T11:47:17.092Z,527.00
2023-05-19T11:48:17.175Z,518.00
2023-05-19T11:49:17.143Z,521.00
2023-05-19T11:50:17.156Z,522.00
2023-05-19T11:51:17.187Z,522.00
2023-05-19T11:52:17.231Z,524.00
2023-05-19T11:53:17.227Z,525.00
2023-05-19T11:54:17.208Z,526.00
2023-05-19T11:55:17.208Z,526.00
2023-05-19T11:56:17.255Z,525.00
2023-05-19T11:57:17.268Z,526.00
2023-05-19T11:58:17.564Z,530.00
2023-05-19T11:59:17.412Z,526.00
2023-05-19T12:00:17.263Z,525.00
2023-05-19T12:01:17.331Z,526.00
2023-05-19T12:02:17.352Z,523.00
2023-05-19T12:03:17.780Z,524.00
2023-05-19T12:04:17.360Z,528.00
2023-05-19T12:05:17.469Z,524.00
2023-05-19T12:06:17.548Z,525.00
2023-05-19T12:07:17.385Z,524.00
2023-05-19T12:08:17.398Z,529.00
2023-05-19T12:09:17.397Z,525.00
2023-05-19T12:10:17.413Z,529.00
2023-05-19T12:11:18.161Z,529.00
2023-05-19T12:12:17.447Z,530.00
2023-05-19T12:13:17.446Z,528.00
2023-05-19T12:14:17.486Z,529.00
2023-05-19T12:15:17.447Z,528.00
2023-05-19T12:17:17.482Z,524.00
2023-05-19T12:18:17.486Z,531.00
2023-05-19T12:19:17.567Z,530.00
2023-05-19T12:20:17.479Z,527.00
2023-05-19T12:21:17.595Z,526.00
2023-05-19T12:22:17.482Z,532.00
2023-05-19T12:23:17.509Z,526.00
2023-05-19T12:24:17.532Z,528.00
2023-05-19T12:25:17.550Z,523.00
2023-05-19T12:26:17.571Z,527.00
2023-05-19T12:27:17.567Z,527.00
2023-05-19T12:28:17.553Z,526.00
2023-05-19T12:29:17.591Z,527.00
2023-05-19T12:30:17.594Z,530.00